createdAt,value
2022-07-30T00:00:25.610Z,10.77
2022-07-30T00:02:53.274Z,8.70
2022-07-30T00:05:20.995Z,8.13
2022-07-30T00:07:48.328Z,8.37
2022-07-30T00:10:15.658Z,7.83
2022-07-30T00:12:42.977Z,8.37
2022-07-30T00:15:10.449Z,7.53
2022-07-30T00:17:37.793Z,6.63
2022-07-30T00:20:05.383Z,7.13
2022-07-30T00:22:32.955Z,7.13
2022-07-30T00:25:00.334Z,7.13
2022-07-30T00:27:27.700Z,6.50
2022-07-30T00:29:54.975Z,8.13
2022-07-30T00:32:22.296Z,8.00
2022-07-30T00:34:49.681Z,6.90
2022-07-30T00:37:17.426Z,6.63
2022-07-30T00:39:44.729Z,9.67
2022-07-30T00:42:12.095Z,7.63
2022-07-30T00:44:41.255Z,7.33
2022-07-30T00:47:08.805Z,7.20
2022-07-30T00:49:36.119Z,7.53
2022-07-30T00:52:03.389Z,8.43
2022-07-30T00:54:30.733Z,8.20
2022-07-30T00:56:58.387Z,8.47
2022-07-30T00:59:31.560Z,7.40
2022-07-30T01:02:01.745Z,8.20
2022-07-30T01:04:30.244Z,7.73
2022-07-30T01:06:58.082Z,8.07
2022-07-30T01:09:25.786Z,7.53
2022-07-30T01:11:53.301Z,8.13
2022-07-30T01:14:20.617Z,7.97
2022-07-30T01:16:48.381Z,7.93
2022-07-30T01:19:41.043Z,8.10
2022-07-30T01:22:16.469Z,8.50
2022-07-30T01:24:53.871Z,8.10
2022-07-30T01:27:22.107Z,7.97
2022-07-30T01:29:49.786Z,8.67
2022-07-30T01:32:17.491Z,9.10
2022-07-30T01:34:46.059Z,9.23
2022-07-30T01:37:14.699Z,8.47
2022-07-30T01:39:42.225Z,8.63
2022-07-30T01:42:10.353Z,8.20
2022-07-30T01:44:38.491Z,9.23
2022-07-30T01:47:07.071Z,8.43
2022-07-30T01:49:35.388Z,8.17
2022-07-30T01:52:03.663Z,8.63
2022-07-30T01:54:32.468Z,7.70
2022-07-30T01:57:02.333Z,9.70
2022-07-30T01:59:32.718Z,9.50
2022-07-30T02:02:00.406Z,8.27
2022-07-30T02:04:28.227Z,8.13
2022-07-30T02:07:10.292Z,8.13
2022-07-30T02:09:46.996Z,8.87
2022-07-30T02:12:29.603Z,9.33
2022-07-30T02:14:58.810Z,8.77
2022-07-30T02:17:30.490Z,9.20
2022-07-30T02:20:09.989Z,8.40
2022-07-30T02:22:40.255Z,9.47
2022-07-30T02:25:10.479Z,8.77
2022-07-30T02:27:39.577Z,8.77
2022-07-30T02:30:07.681Z,8.90
2022-07-30T02:32:36.631Z,9.77
2022-07-30T02:35:10.330Z,8.80
2022-07-30T02:37:43.150Z,9.83
2022-07-30T02:40:14.721Z,9.57
2022-07-30T02:42:43.326Z,9.50
2022-07-30T02:45:13.077Z,9.43
2022-07-30T02:47:41.693Z,9.10
2022-07-30T02:50:10.247Z,9.20
2022-07-30T02:52:39.136Z,9.50
2022-07-30T02:55:07.477Z,9.57
2022-07-30T02:57:34.972Z,9.77
2022-07-30T03:00:03.326Z,9.33
2022-07-30T03:02:31.620Z,9.40
2022-07-30T03:04:59.680Z,8.83
2022-07-30T03:07:27.960Z,8.50
2022-07-30T03:09:57.027Z,9.60
2022-07-30T03:12:26.541Z,10.17
2022-07-30T03:14:53.933Z,9.20
2022-07-30T03:17:23.106Z,9.10
2022-07-30T03:19:51.234Z,9.03
2022-07-30T03:22:19.564Z,9.20
2022-07-30T03:24:47.699Z,8.80
2022-07-30T03:27:15.414Z,9.97
2022-07-30T03:29:43.137Z,8.73
2022-07-30T03:32:13.683Z,9.77
2022-07-30T03:34:43.724Z,9.50
2022-07-30T03:37:11.823Z,9.90
2022-07-30T03:39:39.811Z,9.37
2022-07-30T03:42:08.772Z,9.73
2022-07-30T03:44:37.356Z,9.10
2022-07-30T03:47:06.315Z,9.90
2022-07-30T03:49:39.857Z,9.60
2022-07-30T03:52:11.222Z,8.80
2022-07-30T03:54:38.844Z,9.40
2022-07-30T03:57:24.701Z,9.83
2022-07-30T03:59:52.943Z,10.43
2022-07-30T04:02:21.926Z,9.93
2022-07-30T04:05:15.828Z,9.57
2022-07-30T04:07:45.288Z,10.13
2022-07-30T04:10:15.235Z,9.77
2022-07-30T04:13:04.448Z,10.60
2022-07-30T04:16:05.968Z,10.27
2022-07-30T04:18:27.955Z,9.67
2022-07-30T04:20:55.523Z,9.43
2022-07-30T04:23:23.351Z,10.03
2022-07-30T04:25:51.972Z,10.07
2022-07-30T04:28:20.618Z,9.87
2022-07-30T04:30:48.165Z,10.20
2022-07-30T04:33:15.738Z,9.20
2022-07-30T04:36:06.477Z,10.40
2022-07-30T04:38:35.941Z,10.63
2022-07-30T04:41:03.452Z,10.73
2022-07-30T04:43:43.017Z,10.77
2022-07-30T04:46:10.447Z,10.57
2022-07-30T04:48:37.804Z,10.07
2022-07-30T04:51:19.313Z,11.03
2022-07-30T04:53:47.794Z,10.00
2022-07-30T04:56:17.616Z,11.43
2022-07-30T04:58:45.531Z,10.90
2022-07-30T05:01:17.547Z,10.30
2022-07-30T05:03:47.289Z,9.90
2022-07-30T05:06:15.102Z,10.53
2022-07-30T05:08:42.498Z,9.80
2022-07-30T05:11:12.942Z,9.97
2022-07-30T05:13:46.407Z,9.40
2022-07-30T05:16:15.016Z,10.37
2022-07-30T05:18:43.691Z,10.33
2022-07-30T05:21:11.464Z,10.20
2022-07-30T05:23:50.575Z,9.57
2022-07-30T05:26:41.336Z,10.20
2022-07-30T05:29:19.786Z,9.40
2022-07-30T05:31:54.530Z,9.23
2022-07-30T05:34:22.392Z,9.20
2022-07-30T05:36:50.970Z,9.33
2022-07-30T05:39:18.758Z,9.10
2022-07-30T05:42:13.646Z,9.63
2022-07-30T05:44:44.471Z,9.67
2022-07-30T05:47:11.716Z,10.17
2022-07-30T05:49:44.301Z,10.30
2022-07-30T05:52:15.053Z,10.00
2022-07-30T05:54:42.899Z,9.80
2022-07-30T05:57:25.255Z,10.57
2022-07-30T05:59:52.765Z,9.43
2022-07-30T06:02:24.686Z,10.27
2022-07-30T06:05:21.875Z,10.20
2022-07-30T06:07:49.236Z,10.83
2022-07-30T06:10:19.182Z,9.40
2022-07-30T06:12:47.621Z,9.70
2022-07-30T06:15:25.722Z,9.87
2022-07-30T06:18:01.513Z,10.10
2022-07-30T06:21:02.140Z,10.30
2022-07-30T06:23:45.171Z,10.13
2022-07-30T06:26:29.667Z,10.17
2022-07-30T06:28:57.091Z,10.13
2022-07-30T06:31:29.668Z,9.97
2022-07-30T06:33:57.135Z,10.43
2022-07-30T06:36:26.932Z,9.17
2022-07-30T06:39:07.922Z,10.07
2022-07-30T06:42:10.441Z,11.60
2022-07-30T06:45:00.847Z,10.00
2022-07-30T06:47:38.696Z,9.70
2022-07-30T06:50:06.961Z,8.53
2022-07-30T06:52:36.512Z,9.53
2022-07-30T06:55:04.528Z,9.90
2022-07-30T06:57:42.630Z,10.23
2022-07-30T07:00:30.342Z,10.33
2022-07-30T07:03:01.974Z,9.73
2022-07-30T07:05:36.245Z,18.90
2022-07-30T07:08:04.639Z,12.07
2022-07-30T07:10:37.305Z,9.23
2022-07-30T07:13:13.183Z,9.70
2022-07-30T07:15:40.504Z,9.13
2022-07-30T07:18:12.819Z,8.23
2022-07-30T07:20:46.542Z,8.57
2022-07-30T07:23:13.987Z,8.03
2022-07-30T07:25:43.049Z,8.00
2022-07-30T07:28:11.073Z,10.33
2022-07-30T07:30:41.966Z,8.70
2022-07-30T07:33:09.927Z,8.60
2022-07-30T07:35:48.567Z,9.37
2022-07-30T07:38:20.073Z,10.23
2022-07-30T07:40:49.085Z,11.37
2022-07-30T07:43:16.702Z,13.27
2022-07-30T07:45:44.528Z,10.93
2022-07-30T07:48:12.848Z,10.53
2022-07-30T07:51:00.748Z,11.17
2022-07-30T07:53:31.418Z,11.33
2022-07-30T07:55:59.715Z,10.10
2022-07-30T07:58:27.255Z,12.27
2022-07-30T08:00:58.849Z,12.93
2022-07-30T08:03:46.130Z,10.83
2022-07-30T08:06:36.764Z,10.87
2022-07-30T08:09:43.889Z,11.27
2022-07-30T08:12:35.302Z,10.87
2022-07-30T08:15:22.114Z,11.23
2022-07-30T08:18:08.970Z,11.10
2022-07-30T08:20:41.890Z,11.37
2022-07-30T08:23:10.350Z,11.50
2022-07-30T08:25:38.232Z,11.27
2022-07-30T08:28:05.661Z,11.70
2022-07-30T08:30:33.131Z,12.07
2022-07-30T08:33:00.814Z,12.37
2022-07-30T08:35:28.130Z,11.53
2022-07-30T08:37:55.496Z,12.07
2022-07-30T08:40:26.080Z,21.63
2022-07-30T08:43:01.370Z,11.83
2022-07-30T08:45:34.453Z,11.90
2022-07-30T08:48:32.102Z,10.60
2022-07-30T08:51:00.348Z,11.97
2022-07-30T08:53:34.209Z,11.40
2022-07-30T08:56:02.083Z,11.90
2022-07-30T08:58:34.902Z,11.10
2022-07-30T09:01:02.711Z,11.80
2022-07-30T09:03:30.314Z,12.00
2022-07-30T09:06:04.243Z,10.83
2022-07-30T09:08:32.270Z,11.70
2022-07-30T09:11:00.121Z,10.27
2022-07-30T09:13:27.706Z,9.63
2022-07-30T09:15:57.751Z,9.33
2022-07-30T09:18:29.957Z,11.17
2022-07-30T09:20:59.579Z,9.47
2022-07-30T09:23:27.349Z,10.83
2022-07-30T09:26:13.870Z,9.83
2022-07-30T09:28:47.086Z,9.27
2022-07-30T09:31:14.900Z,11.17
2022-07-30T09:34:07.017Z,9.13
2022-07-30T09:36:53.293Z,10.13
2022-07-30T09:39:30.024Z,10.77
2022-07-30T09:42:27.596Z,10.57
2022-07-30T09:45:11.448Z,10.60
2022-07-30T09:47:48.200Z,11.50
2022-07-30T09:50:29.393Z,11.03
2022-07-30T09:53:06.735Z,10.40
2022-07-30T09:55:36.205Z,10.77
2022-07-30T09:58:09.463Z,10.33
2022-07-30T10:00:37.452Z,10.83
2022-07-30T10:03:38.518Z,10.20
2022-07-30T10:06:34.516Z,11.43
2022-07-30T10:09:14.253Z,12.23
2022-07-30T10:11:49.051Z,11.97
2022-07-30T10:14:16.575Z,13.20
2022-07-30T10:16:43.985Z,10.67
2022-07-30T10:19:13.808Z,11.20
2022-07-30T10:21:58.043Z,10.10
2022-07-30T10:24:46.760Z,10.77
2022-07-30T10:27:57.150Z,13.00
2022-07-30T10:30:31.330Z,10.83
2022-07-30T10:33:01.376Z,11.20
2022-07-30T10:35:34.758Z,13.47
2022-07-30T10:38:09.180Z,10.37
2022-07-30T10:40:42.810Z,10.83
2022-07-30T10:43:31.625Z,10.87
2022-07-30T10:46:22.745Z,10.40
2022-07-30T10:48:51.001Z,10.23
2022-07-30T10:51:25.350Z,9.27
2022-07-30T10:54:02.137Z,11.47
2022-07-30T10:56:29.704Z,10.17
2022-07-30T10:59:03.331Z,10.30
2022-07-30T11:01:53.630Z,10.40
2022-07-30T11:04:21.901Z,9.50
2022-07-30T11:06:54.039Z,9.97
2022-07-30T11:09:41.778Z,9.37
2022-07-30T11:12:16.475Z,8.93
2022-07-30T11:14:47.168Z,9.67
2022-07-30T11:17:18.649Z,10.13
2022-07-30T11:20:07.649Z,9.40
2022-07-30T11:22:41.163Z,10.50
2022-07-30T11:25:12.725Z,9.03
2022-07-30T11:27:42.001Z,9.83
2022-07-30T11:30:19.015Z,8.77
2022-07-30T11:32:48.493Z,7.90
2022-07-30T11:35:16.114Z,9.43
2022-07-30T11:37:55.605Z,8.50
2022-07-30T11:40:26.450Z,9.67
2022-07-30T11:43:13.987Z,9.00
2022-07-30T11:45:41.353Z,8.47
2022-07-30T11:48:12.583Z,8.53
2022-07-30T11:50:40.432Z,8.27
2022-07-30T11:53:09.291Z,8.40
2022-07-30T11:55:38.801Z,8.57
2022-07-30T11:58:07.652Z,8.43
2022-07-30T12:00:39.656Z,8.17
2022-07-30T12:03:15.359Z,8.33
2022-07-30T12:05:43.095Z,7.50
2022-07-30T12:08:35.202Z,8.07
2022-07-30T12:10:59.497Z,9.40
2022-07-30T12:13:43.455Z,9.17
2022-07-30T12:16:13.814Z,7.97
2022-07-30T12:18:41.110Z,8.00
2022-07-30T12:21:09.962Z,11.97
2022-07-30T12:23:37.433Z,7.53
2022-07-30T12:26:04.928Z,9.30
2022-07-30T12:28:33.346Z,6.57
2022-07-30T12:31:06.340Z,6.80
2022-07-30T12:33:33.624Z,9.70
2022-07-30T12:36:01.414Z,9.27
2022-07-30T12:38:29.269Z,8.50
2022-07-30T12:41:03.967Z,7.30
2022-07-30T12:43:43.818Z,7.70
2022-07-30T12:46:14.889Z,7.60
2022-07-30T12:49:10.316Z,8.87
2022-07-30T12:51:59.754Z,8.17
2022-07-30T12:54:27.661Z,7.73
2022-07-30T12:56:59.413Z,8.23
2022-07-30T12:59:27.627Z,7.77
2022-07-30T13:01:57.142Z,6.93
2022-07-30T13:04:24.804Z,9.33
2022-07-30T13:07:08.629Z,8.00
2022-07-30T13:09:36.162Z,7.10
2022-07-30T13:12:03.509Z,7.47
2022-07-30T13:14:31.172Z,7.23
2022-07-30T13:16:58.829Z,7.43
2022-07-30T13:19:28.115Z,7.40
2022-07-30T13:21:55.450Z,7.47
2022-07-30T13:24:22.794Z,7.47
2022-07-30T13:27:01.340Z,6.83
2022-07-30T13:29:28.744Z,6.33
2022-07-30T13:31:56.082Z,5.20
2022-07-30T13:34:23.388Z,6.70
2022-07-30T13:36:50.717Z,6.20
2022-07-30T13:39:17.948Z,9.47
2022-07-30T13:41:45.763Z,7.43
2022-07-30T13:44:13.110Z,8.17
2022-07-30T13:46:41.452Z,6.97
2022-07-30T13:49:09.394Z,5.47
2022-07-30T13:51:36.843Z,5.33
2022-07-30T13:54:05.042Z,4.87
2022-07-30T13:56:32.371Z,5.03
2022-07-30T13:59:00.625Z,4.63
2022-07-30T14:01:28.031Z,6.07
2022-07-30T14:03:55.303Z,7.03
2022-07-30T14:06:22.548Z,7.50
2022-07-30T14:08:49.932Z,8.97
2022-07-30T14:11:17.859Z,7.37
2022-07-30T14:13:45.842Z,7.83
2022-07-30T14:16:35.378Z,7.90
2022-07-30T14:19:01.132Z,8.33
2022-07-30T14:21:28.455Z,8.23
2022-07-30T14:23:56.291Z,8.57
2022-07-30T14:26:23.682Z,10.23
2022-07-30T14:28:50.961Z,8.33
2022-07-30T14:31:18.254Z,10.17
2022-07-30T14:33:45.570Z,7.53
2022-07-30T14:36:12.830Z,8.43
2022-07-30T14:38:40.027Z,6.63
2022-07-30T14:41:08.823Z,5.20
2022-07-30T14:43:36.218Z,3.97
2022-07-30T14:46:03.476Z,3.60
2022-07-30T14:48:30.746Z,3.70
2022-07-30T14:51:13.374Z,3.20
2022-07-30T14:53:47.077Z,6.20
2022-07-30T14:56:14.776Z,5.07
2022-07-30T14:58:45.015Z,3.53
2022-07-30T15:01:15.872Z,4.47
2022-07-30T15:03:44.393Z,4.60
2022-07-30T15:06:12.903Z,4.33
2022-07-30T15:08:40.206Z,3.73
2022-07-30T15:11:07.933Z,3.23
2022-07-30T15:13:36.909Z,3.27
2022-07-30T15:16:06.288Z,3.20
2022-07-30T15:18:34.147Z,3.30
2022-07-30T15:21:01.403Z,3.13
2022-07-30T15:23:28.812Z,3.27
2022-07-30T15:25:56.238Z,3.17
2022-07-30T15:28:23.912Z,3.93
2022-07-30T15:30:51.250Z,4.67
2022-07-30T15:33:18.979Z,3.60
2022-07-30T15:35:46.237Z,3.10
2022-07-30T15:38:13.550Z,2.70
2022-07-30T15:40:42.256Z,3.63
2022-07-30T15:43:10.116Z,2.93
2022-07-30T15:45:51.239Z,2.43
2022-07-30T15:48:26.793Z,2.73
2022-07-30T15:51:04.077Z,3.10
2022-07-30T15:53:32.320Z,3.03
2022-07-30T15:55:59.996Z,3.83
2022-07-30T15:58:27.505Z,3.30
2022-07-30T16:00:55.025Z,3.93
2022-07-30T16:03:22.468Z,2.93
2022-07-30T16:05:51.465Z,3.00
2022-07-30T16:08:20.055Z,3.53
2022-07-30T16:10:47.611Z,4.50
2022-07-30T16:13:14.961Z,2.90
2022-07-30T16:15:42.406Z,3.20
2022-07-30T16:18:10.434Z,4.17
2022-07-30T16:20:37.783Z,3.10
2022-07-30T16:23:09.137Z,3.00
2022-07-30T16:25:39.968Z,3.30
2022-07-30T16:28:07.239Z,4.27
2022-07-30T16:30:34.521Z,4.37
2022-07-30T16:33:01.916Z,5.50
2022-07-30T16:35:29.425Z,2.60
2022-07-30T16:38:02.614Z,3.23
2022-07-30T16:40:30.593Z,2.83
2022-07-30T16:42:57.957Z,3.77
2022-07-30T16:45:26.258Z,5.20
2022-07-30T16:47:53.588Z,2.40
2022-07-30T16:50:21.005Z,2.23
2022-07-30T16:52:48.279Z,2.63
2022-07-30T16:55:15.637Z,5.37
2022-07-30T16:57:42.949Z,2.67
2022-07-30T17:00:12.104Z,3.73
2022-07-30T17:02:39.468Z,2.83
2022-07-30T17:05:09.600Z,3.50
2022-07-30T17:07:39.242Z,3.33
2022-07-30T17:10:06.662Z,3.83
2022-07-30T17:12:39.006Z,3.10
2022-07-30T17:15:07.979Z,2.67
2022-07-30T17:17:35.340Z,3.37
2022-07-30T17:20:04.354Z,3.00
2022-07-30T17:22:32.035Z,2.60
2022-07-30T17:24:59.547Z,2.67
2022-07-30T17:27:28.348Z,2.60
2022-07-30T17:29:55.640Z,2.83
2022-07-30T17:32:23.333Z,3.43
2022-07-30T17:34:50.767Z,2.93
2022-07-30T17:37:18.380Z,2.87
2022-07-30T17:40:23.953Z,2.90
2022-07-30T17:42:32.917Z,3.87
2022-07-30T17:45:01.256Z,3.27
2022-07-30T17:47:28.764Z,3.47
2022-07-30T17:49:56.499Z,3.43
2022-07-30T17:52:26.318Z,3.20
2022-07-30T17:54:54.222Z,3.97
2022-07-30T17:57:21.569Z,2.80
2022-07-30T17:59:48.866Z,5.23
2022-07-30T18:02:16.131Z,3.30
2022-07-30T18:04:43.490Z,4.57
2022-07-30T18:07:10.820Z,3.10
2022-07-30T18:09:40.293Z,5.20
2022-07-30T18:12:07.935Z,6.70
2022-07-30T18:14:35.319Z,9.77
2022-07-30T18:17:03.530Z,9.40
2022-07-30T18:19:30.838Z,9.57
2022-07-30T18:21:58.117Z,9.23
2022-07-30T18:24:30.154Z,10.63
2022-07-30T18:26:57.390Z,15.63
2022-07-30T18:29:24.632Z,15.60
2022-07-30T18:31:51.853Z,14.57
2022-07-30T18:34:19.138Z,13.87
2022-07-30T18:36:50.986Z,11.80
2022-07-30T18:39:18.512Z,11.33
2022-07-30T18:41:45.762Z,10.67
2022-07-30T18:44:13.240Z,10.30
2022-07-30T18:46:40.659Z,12.50
2022-07-30T18:49:33.861Z,10.37
2022-07-30T18:51:55.400Z,11.23
2022-07-30T18:54:23.833Z,10.87
2022-07-30T18:56:51.152Z,10.60
2022-07-30T18:59:18.419Z,10.73
2022-07-30T19:01:45.720Z,11.10
2022-07-30T19:04:13.261Z,12.27
2022-07-30T19:06:40.744Z,11.33
2022-07-30T19:09:16.865Z,12.33
2022-07-30T19:11:44.892Z,13.27
2022-07-30T19:14:13.225Z,12.77
2022-07-30T19:16:40.955Z,12.93
2022-07-30T19:19:08.517Z,13.27
2022-07-30T19:21:35.879Z,12.87
2022-07-30T19:24:03.721Z,12.50
2022-07-30T19:26:31.171Z,12.10
2022-07-30T19:28:58.675Z,12.00
2022-07-30T19:31:26.291Z,12.67
2022-07-30T19:33:53.635Z,12.50
2022-07-30T19:36:21.214Z,11.20
2022-07-30T19:38:50.038Z,12.00
2022-07-30T19:41:17.420Z,12.50
2022-07-30T19:43:57.977Z,12.20
2022-07-30T19:46:25.875Z,11.87
2022-07-30T19:48:53.386Z,12.97
2022-07-30T19:51:25.197Z,12.07
2022-07-30T19:54:08.075Z,11.60
2022-07-30T19:56:37.875Z,13.00
2022-07-30T19:59:14.916Z,10.97
2022-07-30T20:01:43.384Z,11.87
2022-07-30T20:04:11.348Z,12.67
2022-07-30T20:06:46.181Z,12.63
2022-07-30T20:09:15.012Z,11.70
2022-07-30T20:11:43.403Z,12.53
2022-07-30T20:14:10.808Z,13.17
2022-07-30T20:16:38.066Z,11.47
2022-07-30T20:19:05.615Z,12.93
2022-07-30T20:21:56.696Z,12.53
2022-07-30T20:24:21.139Z,12.33
2022-07-30T20:26:48.516Z,13.73
2022-07-30T20:29:19.309Z,13.47
2022-07-30T20:31:49.970Z,13.40
2022-07-30T20:34:23.215Z,12.87
2022-07-30T20:36:51.652Z,13.73
2022-07-30T20:39:21.403Z,13.87
2022-07-30T20:41:48.642Z,15.60
2022-07-30T20:44:23.483Z,14.17
2022-07-30T20:46:52.667Z,13.80
2022-07-30T20:49:23.792Z,15.77
2022-07-30T20:52:09.750Z,14.27
2022-07-30T20:54:37.607Z,14.37
2022-07-30T20:57:15.576Z,14.27
2022-07-30T21:02:30.815Z,15.30
2022-07-30T21:04:59.941Z,14.33
2022-07-30T21:07:27.308Z,14.33
2022-07-30T21:10:04.564Z,15.10
2022-07-30T21:12:36.347Z,45.57
2022-07-30T21:15:03.943Z,47.83
2022-07-30T21:17:50.802Z,38.97
2022-07-30T21:20:27.411Z,39.73
2022-07-30T21:22:55.775Z,31.93
2022-07-30T21:25:32.370Z,31.20
2022-07-30T21:28:00.609Z,27.60
2022-07-30T21:30:30.607Z,26.83
2022-07-30T21:32:57.922Z,24.10
2022-07-30T21:35:25.822Z,21.70
2022-07-30T21:37:59.635Z,19.13
2022-07-30T21:40:27.702Z,17.03
2022-07-30T21:42:56.313Z,16.23
2022-07-30T21:45:23.929Z,29.43
2022-07-30T21:47:55.703Z,39.37
2022-07-30T21:50:23.025Z,22.17
2022-07-30T21:52:50.586Z,18.00
2022-07-30T21:55:18.898Z,18.87
2022-07-30T21:57:48.946Z,18.90
2022-07-30T22:00:22.343Z,19.97
2022-07-30T22:02:53.302Z,18.20
2022-07-30T22:05:23.277Z,18.13
2022-07-30T22:07:50.919Z,18.13
2022-07-30T22:13:05.527Z,17.83
2022-07-30T22:15:32.893Z,19.60
2022-07-30T22:18:01.093Z,19.07
2022-07-30T22:20:29.260Z,17.70
2022-07-30T22:23:03.630Z,16.23
2022-07-30T22:25:39.789Z,16.37
2022-07-30T22:28:11.222Z,15.63
2022-07-30T22:30:38.762Z,14.90
2022-07-30T22:33:16.409Z,13.80
2022-07-30T22:35:46.665Z,13.93
2022-07-30T22:38:19.426Z,14.03
2022-07-30T22:40:47.383Z,14.57
2022-07-30T22:43:16.787Z,13.37
2022-07-30T22:45:48.424Z,14.17
2022-07-30T22:48:16.872Z,13.70
2022-07-30T22:50:44.199Z,12.47
2022-07-30T22:53:56.925Z,13.17
2022-07-30T22:56:04.222Z,13.50
2022-07-30T22:58:31.478Z,13.33
2022-07-30T23:00:58.791Z,12.90
2022-07-30T23:03:26.089Z,12.70
2022-07-30T23:05:55.093Z,12.70
2022-07-30T23:08:30.089Z,11.80
2022-07-30T23:10:59.610Z,13.00
2022-07-30T23:12:31.285Z,12.90
2022-07-30T23:12:33.211Z,18.00
2022-07-30T23:13:27.332Z,12.53
2022-07-30T23:15:54.672Z,13.97
2022-07-30T23:18:21.942Z,13.83
2022-07-30T23:20:49.267Z,14.07
2022-07-30T23:23:18.718Z,14.00
2022-07-30T23:25:46.075Z,13.53
2022-07-30T23:28:13.392Z,13.53
2022-07-30T23:30:40.662Z,13.57
2022-07-30T23:33:07.939Z,13.93
2022-07-30T23:35:35.363Z,14.07
2022-07-30T23:38:02.846Z,13.80
2022-07-30T23:40:30.131Z,13.37
2022-07-30T23:42:57.442Z,14.10
2022-07-30T23:45:24.738Z,14.37
2022-07-30T23:48:02.925Z,13.97
2022-07-30T23:50:32.013Z,14.43
2022-07-30T23:52:59.457Z,12.83
2022-07-30T23:55:29.885Z,13.33
2022-07-30T23:57:57.982Z,13.10
